sensor_id;sensor_type;location;lat;lon;timestamp;pressure;altitude;pressure_sealevel;temperature;humidity
48216;BME280;34005;48.844;10.098;2023-10-13T00:01:57;96792.97;;;18.00;57.19
48216;BME280;34005;48.844;10.098;2023-10-13T00:04:26;96785.28;;;17.98;57.28
48216;BME280;34005;48.844;10.098;2023-10-13T00:06:54;96794.19;;;17.97;57.20
48216;BME280;34005;48.844;10.098;2023-10-13T00:09:24;96797.31;;;17.94;58.02
48216;BME280;34005;48.844;10.098;2023-10-13T00:11:58;96794.06;;;17.92;57.77
48216;BME280;34005;48.844;10.098;2023-10-13T00:14:26;96790.84;;;17.90;57.60
48216;BME280;34005;48.844;10.098;2023-10-13T00:17:00;96786.47;;;17.84;57.75
48216;BME280;34005;48.844;10.098;2023-10-13T00:19:33;96787.78;;;17.75;57.84
48216;BME280;34005;48.844;10.098;2023-10-13T00:22:06;96787.84;;;17.68;57.12
48216;BME280;34005;48.844;10.098;2023-10-13T00:24:39;96785.31;;;17.61;57.56
48216;BME280;34005;48.844;10.098;2023-10-13T00:27:13;96788.41;;;17.58;56.96
48216;BME280;34005;48.844;10.098;2023-10-13T00:29:57;96775.28;;;17.52;56.49
48216;BME280;34005;48.844;10.098;2023-10-13T00:32:49;96771.09;;;17.44;56.21
48216;BME280;34005;48.844;10.098;2023-10-13T00:35:21;96770.59;;;17.35;56.16
48216;BME280;34005;48.844;10.098;2023-10-13T00:37:54;96771.25;;;17.30;55.86
48216;BME280;34005;48.844;10.098;2023-10-13T00:40:24;96767.91;;;17.23;56.02
48216;BME280;34005;48.844;10.098;2023-10-13T00:43:06;96768.31;;;17.20;55.90
48216;BME280;34005;48.844;10.098;2023-10-13T00:45:50;96760.06;;;17.17;55.94
48216;BME280;34005;48.844;10.098;2023-10-13T00:48:24;96751.19;;;17.11;55.45
48216;BME280;34005;48.844;10.098;2023-10-13T00:50:56;96758.31;;;17.11;55.88
48216;BME280;34005;48.844;10.098;2023-10-13T00:53:25;96765.63;;;17.08;55.86
48216;BME280;34005;48.844;10.098;2023-10-13T00:55:54;96753.09;;;17.04;55.65
48216;BME280;34005;48.844;10.098;2023-10-13T00:58:23;96755.16;;;17.02;55.50
48216;BME280;34005;48.844;10.098;2023-10-13T01:00:54;96758.59;;;17.02;55.58
48216;BME280;34005;48.844;10.098;2023-10-13T01:03:45;96746.78;;;17.05;55.76
48216;BME280;34005;48.844;10.098;2023-10-13T01:06:12;96760.34;;;17.08;55.76
48216;BME280;34005;48.844;10.098;2023-10-13T01:08:40;96751.41;;;17.09;55.59
48216;BME280;34005;48.844;10.098;2023-10-13T01:11:11;96749.00;;;17.08;55.58
48216;BME280;34005;48.844;10.098;2023-10-13T01:13:39;96757.13;;;17.06;55.44
48216;BME280;34005;48.844;10.098;2023-10-13T01:16:08;96756.97;;;17.01;55.43
48216;BME280;34005;48.844;10.098;2023-10-13T01:18:40;96752.50;;;17.02;55.37
48216;BME280;34005;48.844;10.098;2023-10-13T01:21:15;96755.56;;;16.99;55.11
48216;BME280;34005;48.844;10.098;2023-10-13T01:23:47;96753.97;;;16.98;55.35
48216;BME280;34005;48.844;10.098;2023-10-13T01:26:14;96750.75;;;16.96;55.20
48216;BME280;34005;48.844;10.098;2023-10-13T01:28:47;96746.72;;;16.93;55.25
48216;BME280;34005;48.844;10.098;2023-10-13T01:31:16;96746.34;;;16.89;55.45
48216;BME280;34005;48.844;10.098;2023-10-13T01:33:56;96753.25;;;16.91;55.58
48216;BME280;34005;48.844;10.098;2023-10-13T01:36:26;96750.38;;;16.92;55.55
48216;BME280;34005;48.844;10.098;2023-10-13T01:38:55;96748.31;;;16.94;55.58
48216;BME280;34005;48.844;10.098;2023-10-13T01:41:22;96742.25;;;16.94;55.16
48216;BME280;34005;48.844;10.098;2023-10-13T01:43:50;96740.19;;;16.96;54.94
48216;BME280;34005;48.844;10.098;2023-10-13T01:46:17;96743.88;;;16.95;54.86
48216;BME280;34005;48.844;10.098;2023-10-13T01:48:48;96738.59;;;16.95;54.66
48216;BME280;34005;48.844;10.098;2023-10-13T01:51:15;96734.78;;;16.91;54.61
48216;BME280;34005;48.844;10.098;2023-10-13T01:53:42;96741.53;;;16.86;54.56
48216;BME280;34005;48.844;10.098;2023-10-13T01:56:11;96739.31;;;16.83;54.68
48216;BME280;34005;48.844;10.098;2023-10-13T01:58:39;96745.81;;;16.81;54.94
48216;BME280;34005;48.844;10.098;2023-10-13T02:01:08;96748.25;;;16.82;54.69
48216;BME280;34005;48.844;10.098;2023-10-13T02:03:37;96737.91;;;16.81;54.70
48216;BME280;34005;48.844;10.098;2023-10-13T02:06:09;96734.66;;;16.79;54.63
48216;BME280;34005;48.844;10.098;2023-10-13T02:08:43;96740.97;;;16.78;54.83
48216;BME280;34005;48.844;10.098;2023-10-13T02:11:14;96739.13;;;16.78;54.70
48216;BME280;34005;48.844;10.098;2023-10-13T02:13:45;96736.09;;;16.81;54.75
48216;BME280;34005;48.844;10.098;2023-10-13T02:16:15;96737.72;;;16.82;54.77
48216;BME280;34005;48.844;10.098;2023-10-13T02:18:48;96730.00;;;16.81;54.79
48216;BME280;34005;48.844;10.098;2023-10-13T02:21:18;96735.50;;;16.79;54.52
48216;BME280;34005;48.844;10.098;2023-10-13T02:23:46;96720.09;;;16.76;54.73
48216;BME280;34005;48.844;10.098;2023-10-13T02:26:29;96725.03;;;16.73;54.81
48216;BME280;34005;48.844;10.098;2023-10-13T02:28:58;96725.22;;;16.71;54.86
48216;BME280;34005;48.844;10.098;2023-10-13T02:31:27;96724.63;;;16.69;54.75
48216;BME280;34005;48.844;10.098;2023-10-13T02:33:55;96716.16;;;16.67;54.82
48216;BME280;34005;48.844;10.098;2023-10-13T02:36:22;96711.31;;;16.64;54.81
48216;BME280;34005;48.844;10.098;2023-10-13T02:39:03;96714.97;;;16.63;54.81
48216;BME280;34005;48.844;10.098;2023-10-13T02:41:35;96720.22;;;16.63;55.12
48216;BME280;34005;48.844;10.098;2023-10-13T02:44:05;96711.31;;;16.64;54.82
48216;BME280;34005;48.844;10.098;2023-10-13T02:46:33;96714.97;;;16.63;54.67
48216;BME280;34005;48.844;10.098;2023-10-13T02:49:03;96702.84;;;16.62;54.94
48216;BME280;34005;48.844;10.098;2023-10-13T02:51:37;96711.75;;;16.61;54.64
48216;BME280;34005;48.844;10.098;2023-10-13T02:54:08;96703.25;;;16.59;55.00
48216;BME280;34005;48.844;10.098;2023-10-13T02:56:39;96698.19;;;16.57;54.89
48216;BME280;34005;48.844;10.098;2023-10-13T02:59:15;96699.22;;;16.56;54.96
48216;BME280;34005;48.844;10.098;2023-10-13T03:01:46;96691.13;;;16.58;55.07
48216;BME280;34005;48.844;10.098;2023-10-13T03:04:13;96700.63;;;16.59;54.81
48216;BME280;34005;48.844;10.098;2023-10-13T03:06:40;96696.97;;;16.60;55.01
48216;BME280;34005;48.844;10.098;2023-10-13T03:09:09;96692.72;;;16.59;54.94
48216;BME280;34005;48.844;10.098;2023-10-13T03:11:46;96687.44;;;16.59;54.86
48216;BME280;34005;48.844;10.098;2023-10-13T03:14:15;96686.66;;;16.58;54.93
48216;BME280;34005;48.844;10.098;2023-10-13T03:16:51;96681.38;;;16.58;54.87
48216;BME280;34005;48.844;10.098;2023-10-13T03:19:20;96680.59;;;16.58;54.89
48216;BME280;34005;48.844;10.098;2023-10-13T03:21:47;96677.94;;;16.58;54.73
48216;BME280;34005;48.844;10.098;2023-10-13T03:24:22;96677.72;;;16.59;54.73
48216;BME280;34005;48.844;10.098;2023-10-13T03:27:01;96676.56;;;16.55;54.51
48216;BME280;34005;48.844;10.098;2023-10-13T03:29:36;96679.81;;;16.51;54.69
48216;BME280;34005;48.844;10.098;2023-10-13T03:32:04;96683.03;;;16.53;54.41
48216;BME280;34005;48.844;10.098;2023-10-13T03:34:38;96684.88;;;16.52;54.82
48216;BME280;34005;48.844;10.098;2023-10-13T03:37:16;96688.31;;;16.53;54.80
48216;BME280;34005;48.844;10.098;2023-10-13T03:40:04;96680.00;;;16.56;54.82
48216;BME280;34005;48.844;10.098;2023-10-13T03:42:35;96679.41;;;16.54;54.49
48216;BME280;34005;48.844;10.098;2023-10-13T03:45:07;96670.31;;;16.50;54.73
48216;BME280;34005;48.844;10.098;2023-10-13T03:47:37;96679.22;;;16.48;54.55
48216;BME280;34005;48.844;10.098;2023-10-13T03:50:06;96677.03;;;16.45;54.64
48216;BME280;34005;48.844;10.098;2023-10-13T03:52:42;96674.63;;;16.44;54.66
48216;BME280;34005;48.844;10.098;2023-10-13T03:55:11;96675.06;;;16.41;54.48
48216;BME280;34005;48.844;10.098;2023-10-13T03:57:45;96678.94;;;16.38;54.47
48216;BME280;34005;48.844;10.098;2023-10-13T04:00:16;96676.50;;;16.37;54.42
48216;BME280;34005;48.844;10.098;2023-10-13T04:02:50;96675.13;;;16.34;54.38
48216;BME280;34005;48.844;10.098;2023-10-13T04:05:32;96672.50;;;16.34;54.52
48216;BME280;34005;48.844;10.098;2023-10-13T04:08:07;96673.88;;;16.37;54.56
48216;BME280;34005;48.844;10.098;2023-10-13T04:10:54;96678.13;;;16.38;54.38
48216;BME280;34005;48.844;10.098;2023-10-13T04:13:41;96677.31;;;16.37;54.29
48216;BME280;34005;48.844;10.098;2023-10-13T04:16:27;96673.09;;;16.36;54.13
48216;BME280;34005;48.844;10.098;2023-10-13T04:19:05;96674.53;;;16.32;54.45
48216;BME280;34005;48.844;10.098;2023-10-13T04:21:36;96672.94;;;16.31;54.17
48216;BME280;34005;48.844;10.098;2023-10-13T04:24:10;96673.94;;;16.30;54.31
48216;BME280;34005;48.844;10.098;2023-10-13T04:26:51;96670.72;;;16.28;54.34
48216;BME280;34005;48.844;10.098;2023-10-13T04:29:39;96665.66;;;16.26;54.50
48216;BME280;34005;48.844;10.098;2023-10-13T04:32:20;96664.28;;;16.24;54.48
48216;BME280;34005;48.844;10.098;2023-10-13T04:34:56;96669.53;;;16.24;54.36
48216;BME280;34005;48.844;10.098;2023-10-13T04:37:30;96658.41;;;16.22;54.45
48216;BME280;34005;48.844;10.098;2023-10-13T04:40:00;96669.78;;;16.22;54.45
48216;BME280;34005;48.844;10.098;2023-10-13T04:42:36;96671.56;;;16.22;54.39
48216;BME280;34005;48.844;10.098;2023-10-13T04:45:17;96664.72;;;16.21;54.46
48216;BME280;34005;48.844;10.098;2023-10-13T04:48:03;96668.78;;;16.17;54.50
48216;BME280;34005;48.844;10.098;2023-10-13T04:50:45;96666.38;;;16.15;54.68
48216;BME280;34005;48.844;10.098;2023-10-13T04:53:14;96657.09;;;16.13;54.56
48216;BME280;34005;48.844;10.098;2023-10-13T04:56:00;96655.91;;;16.09;54.49
48216;BME280;34005;48.844;10.098;2023-10-13T04:58:55;96659.19;;;16.04;54.79
48216;BME280;34005;48.844;10.098;2023-10-13T05:01:37;96664.06;;;16.00;54.83
48216;BME280;34005;48.844;10.098;2023-10-13T05:04:50;96663.69;;;15.97;54.54
48216;BME280;34005;48.844;10.098;2023-10-13T05:07:35;96651.97;;;15.93;54.73
48216;BME280;34005;48.844;10.098;2023-10-13T05:10:20;96659.47;;;15.89;54.85
48216;BME280;34005;48.844;10.098;2023-10-13T05:13:06;96653.63;;;15.87;54.68
48216;BME280;34005;48.844;10.098;2023-10-13T05:15:51;96659.31;;;15.84;54.84
48216;BME280;34005;48.844;10.098;2023-10-13T05:18:38;96654.06;;;15.84;54.92
48216;BME280;34005;48.844;10.098;2023-10-13T05:21:23;96651.44;;;15.84;54.86
48216;BME280;34005;48.844;10.098;2023-10-13T05:24:08;96646.63;;;15.81;55.05
48216;BME280;34005;48.844;10.098;2023-10-13T05:26:53;96647.19;;;15.83;55.05
48216;BME280;34005;48.844;10.098;2023-10-13T05:29:39;96644.34;;;15.84;54.86
48216;BME280;34005;48.844;10.098;2023-10-13T05:32:25;96645.97;;;15.85;54.95
48216;BME280;34005;48.844;10.098;2023-10-13T05:35:12;96642.50;;;15.85;55.22
48216;BME280;34005;48.844;10.098;2023-10-13T05:37:57;96653.88;;;15.85;55.14
48216;BME280;34005;48.844;10.098;2023-10-13T05:40:53;96651.44;;;15.84;55.29
48216;BME280;34005;48.844;10.098;2023-10-13T05:43:43;96651.22;;;15.85;55.05
48216;BME280;34005;48.844;10.098;2023-10-13T05:46:29;96647.19;;;15.83;55.14
48216;BME280;34005;48.844;10.098;2023-10-13T05:49:16;96645.78;;;15.80;55.16
48216;BME280;34005;48.844;10.098;2023-10-13T05:52:08;96643.16;;;15.80;55.26
48216;BME280;34005;48.844;10.098;2023-10-13T05:54:46;96644.19;;;15.79;55.19
48216;BME280;34005;48.844;10.098;2023-10-13T05:57:31;96645.78;;;15.80;55.29
48216;BME280;34005;48.844;10.098;2023-10-13T06:00:17;96641.91;;;15.83;55.12
48216;BME280;34005;48.844;10.098;2023-10-13T06:03:02;96646.19;;;15.84;55.13
48216;BME280;34005;48.844;10.098;2023-10-13T06:05:48;96640.13;;;15.83;55.36
48216;BME280;34005;48.844;10.098;2023-10-13T06:08:35;96638.28;;;15.84;55.31
48216;BME280;34005;48.844;10.098;2023-10-13T06:11:20;96637.03;;;15.86;55.08
48216;BME280;34005;48.844;10.098;2023-10-13T06:14:05;96637.44;;;15.90;55.05
48216;BME280;34005;48.844;10.098;2023-10-13T06:16:51;96647.53;;;15.93;54.86
48216;BME280;34005;48.844;10.098;2023-10-13T06:19:41;96645.06;;;15.98;54.61
48216;BME280;34005;48.844;10.098;2023-10-13T06:22:27;96642.38;;;16.05;54.57
48216;BME280;34005;48.844;10.098;2023-10-13T06:25:14;96636.25;;;16.11;54.32
48216;BME280;34005;48.844;10.098;2023-10-13T06:27:59;96651.97;;;16.18;54.18
48216;BME280;34005;48.844;10.098;2023-10-13T06:30:53;96648.88;;;16.27;54.26
48216;BME280;34005;48.844;10.098;2023-10-13T06:33:23;96654.66;;;16.36;53.84
48216;BME280;34005;48.844;10.098;2023-10-13T06:35:56;96651.75;;;16.44;53.71
48216;BME280;34005;48.844;10.098;2023-10-13T06:38:24;96648.81;;;16.53;53.68
48216;BME280;34005;48.844;10.098;2023-10-13T06:40:58;96654.00;;;16.59;53.50
48216;BME280;34005;48.844;10.098;2023-10-13T06:43:26;96649.25;;;16.68;53.47
48216;BME280;34005;48.844;10.098;2023-10-13T06:46:00;96649.56;;;16.78;53.24
48216;BME280;34005;48.844;10.098;2023-10-13T06:48:28;96655.59;;;16.85;52.95
48216;BME280;34005;48.844;10.098;2023-10-13T06:51:00;96655.75;;;16.91;52.84
48216;BME280;34005;48.844;10.098;2023-10-13T06:53:30;96652.00;;;16.98;52.60
48216;BME280;34005;48.844;10.098;2023-10-13T06:56:07;96657.34;;;17.10;52.48
48216;BME280;34005;48.844;10.098;2023-10-13T06:58:35;96667.16;;;17.21;52.24
48216;BME280;34005;48.844;10.098;2023-10-13T07:01:06;96663.16;;;17.30;52.00
48216;BME280;34005;48.844;10.098;2023-10-13T07:03:42;96655.75;;;17.39;51.65
48216;BME280;34005;48.844;10.098;2023-10-13T07:06:09;96662.09;;;17.50;51.34
48216;BME280;34005;48.844;10.098;2023-10-13T07:08:44;96659.16;;;17.58;51.04
48216;BME280;34005;48.844;10.098;2023-10-13T07:11:24;96651.94;;;17.65;50.69
48216;BME280;34005;48.844;10.098;2023-10-13T07:14:00;96662.19;;;17.74;50.63
48216;BME280;34005;48.844;10.098;2023-10-13T07:16:43;96663.50;;;17.83;50.43
48216;BME280;34005;48.844;10.098;2023-10-13T07:19:13;96660.53;;;17.91;50.47
48216;BME280;34005;48.844;10.098;2023-10-13T07:21:46;96659.75;;;18.02;50.01
48216;BME280;34005;48.844;10.098;2023-10-13T07:24:14;96661.13;;;18.17;49.92
48216;BME280;34005;48.844;10.098;2023-10-13T07:26:43;96664.47;;;18.36;49.43
48216;BME280;34005;48.844;10.098;2023-10-13T07:29:13;96665.38;;;18.53;49.05
48216;BME280;34005;48.844;10.098;2023-10-13T07:31:41;96663.44;;;18.72;48.61
48216;BME280;34005;48.844;10.098;2023-10-13T07:34:12;96659.63;;;18.91;48.20
48216;BME280;34005;48.844;10.098;2023-10-13T07:36:52;96664.84;;;19.15;47.78
48216;BME280;34005;48.844;10.098;2023-10-13T07:39:27;96657.31;;;19.35;47.32
48216;BME280;34005;48.844;10.098;2023-10-13T07:42:02;96660.91;;;19.58;46.42
48216;BME280;34005;48.844;10.098;2023-10-13T07:44:35;96655.03;;;19.85;45.81
48216;BME280;34005;48.844;10.098;2023-10-13T07:47:12;96663.72;;;20.14;45.13
48216;BME280;34005;48.844;10.098;2023-10-13T07:49:41;96659.06;;;20.38;44.50
48216;BME280;34005;48.844;10.098;2023-10-13T07:52:10;96650.44;;;20.65;44.27
48216;BME280;34005;48.844;10.098;2023-10-13T07:54:56;96653.44;;;20.90;43.52
48216;BME280;34005;48.844;10.098;2023-10-13T07:57:27;96655.22;;;21.07;43.22
48216;BME280;34005;48.844;10.098;2023-10-13T07:59:56;96652.22;;;21.25;42.82
48216;BME280;34005;48.844;10.098;2023-10-13T08:02:35;96643.22;;;21.75;41.84
48216;BME280;34005;48.844;10.098;2023-10-13T08:05:17;96647.41;;;22.73;40.56
48216;BME280;34005;48.844;10.098;2023-10-13T08:07:51;96644.25;;;23.55;38.12
48216;BME280;34005;48.844;10.098;2023-10-13T08:10:20;96651.25;;;23.87;37.39
48216;BME280;34005;48.844;10.098;2023-10-13T08:12:55;96650.19;;;23.93;37.26
48216;BME280;34005;48.844;10.098;2023-10-13T08:15:25;96652.53;;;23.69;37.86
48216;BME280;34005;48.844;10.098;2023-10-13T08:17:59;96641.53;;;23.39;38.18
48216;BME280;34005;48.844;10.098;2023-10-13T08:20:31;96632.75;;;23.29;39.66
48216;BME280;34005;48.844;10.098;2023-10-13T08:23:04;96631.97;;;23.33;38.56
48216;BME280;34005;48.844;10.098;2023-10-13T08:25:40;96630.66;;;23.46;38.28
48216;BME280;34005;48.844;10.098;2023-10-13T08:28:35;96623.25;;;23.69;37.84
48216;BME280;34005;48.844;10.098;2023-10-13T08:31:23;96622.47;;;23.89;37.20
48216;BME280;34005;48.844;10.098;2023-10-13T08:33:53;96618.22;;;24.08;37.14
48216;BME280;34005;48.844;10.098;2023-10-13T08:36:32;96607.00;;;24.26;36.72
48216;BME280;34005;48.844;10.098;2023-10-13T08:39:04;96620.03;;;24.43;36.51
48216;BME280;34005;48.844;10.098;2023-10-13T08:42:03;96611.75;;;24.55;36.45
48216;BME280;34005;48.844;10.098;2023-10-13T08:44:44;96615.19;;;24.66;36.14
48216;BME280;34005;48.844;10.098;2023-10-13T08:47:14;96611.41;;;24.82;35.74
48216;BME280;34005;48.844;10.098;2023-10-13T08:49:45;96616.44;;;24.99;35.80
48216;BME280;34005;48.844;10.098;2023-10-13T08:52:19;96613.91;;;25.18;35.52
48216;BME280;34005;48.844;10.098;2023-10-13T08:55:05;96610.88;;;25.40;35.29
48216;BME280;34005;48.844;10.098;2023-10-13T08:57:46;96603.81;;;25.60;34.88
48216;BME280;34005;48.844;10.098;2023-10-13T09:00:18;96611.19;;;25.73;34.58
48216;BME280;34005;48.844;10.098;2023-10-13T09:03:14;96611.63;;;25.90;34.28
48216;BME280;34005;48.844;10.098;2023-10-13T09:06:05;96609.88;;;26.10;34.44
48216;BME280;34005;48.844;10.098;2023-10-13T09:08:33;96605.91;;;26.31;34.11
48216;BME280;34005;48.844;10.098;2023-10-13T09:11:32;96605.56;;;26.67;33.76
48216;BME280;34005;48.844;10.098;2023-10-13T09:14:03;96612.50;;;26.92;33.40
48216;BME280;34005;48.844;10.098;2023-10-13T09:16:32;96607.34;;;27.20;32.98
48216;BME280;34005;48.844;10.098;2023-10-13T09:19:14;96603.44;;;27.50;32.35
48216;BME280;34005;48.844;10.098;2023-10-13T09:21:42;96605.19;;;27.79;31.84
48216;BME280;34005;48.844;10.098;2023-10-13T09:24:15;96604.09;;;28.13;31.44
48216;BME280;34005;48.844;10.098;2023-10-13T09:27:00;96605.44;;;28.43;30.79
48216;BME280;34005;48.844;10.098;2023-10-13T09:29:29;96605.59;;;28.66;29.67
48216;BME280;34005;48.844;10.098;2023-10-13T09:32:01;96595.44;;;28.90;29.61
48216;BME280;34005;48.844;10.098;2023-10-13T09:34:30;96597.81;;;29.20;28.81
48216;BME280;34005;48.844;10.098;2023-10-13T09:37:01;96588.22;;;29.41;28.21
48216;BME280;34005;48.844;10.098;2023-10-13T09:39:32;96587.72;;;29.62;27.93
48216;BME280;34005;48.844;10.098;2023-10-13T09:42:11;96583.00;;;29.81;27.80
48216;BME280;34005;48.844;10.098;2023-10-13T09:44:42;96575.53;;;30.01;27.98
48216;BME280;34005;48.844;10.098;2023-10-13T09:47:20;96577.19;;;30.19;27.29
48216;BME280;34005;48.844;10.098;2023-10-13T09:49:59;96580.97;;;30.41;27.29
48216;BME280;34005;48.844;10.098;2023-10-13T09:52:32;96573.13;;;30.62;27.35
48216;BME280;34005;48.844;10.098;2023-10-13T09:55:11;96573.66;;;30.72;26.78
48216;BME280;34005;48.844;10.098;2023-10-13T09:57:43;96573.34;;;30.83;26.68
48216;BME280;34005;48.844;10.098;2023-10-13T10:00:17;96575.13;;;30.96;26.86
48216;BME280;34005;48.844;10.098;2023-10-13T10:03:06;96576.75;;;31.14;26.69
48216;BME280;34005;48.844;10.098;2023-10-13T10:05:42;96572.34;;;31.27;26.16
48216;BME280;34005;48.844;10.098;2023-10-13T10:08:23;96567.09;;;31.39;25.98
48216;BME280;34005;48.844;10.098;2023-10-13T10:10:59;96568.06;;;31.61;26.94
48216;BME280;34005;48.844;10.098;2023-10-13T10:13:35;96572.34;;;31.71;25.93
48216;BME280;34005;48.844;10.098;2023-10-13T10:16:10;96565.97;;;32.01;24.84
48216;BME280;34005;48.844;10.098;2023-10-13T10:18:42;96564.41;;;32.77;24.03
48216;BME280;34005;48.844;10.098;2023-10-13T10:21:10;96556.88;;;33.76;22.12
48216;BME280;34005;48.844;10.098;2023-10-13T10:23:38;96555.22;;;34.41;21.16
48216;BME280;34005;48.844;10.098;2023-10-13T10:26:10;96551.53;;;34.83;20.22
48216;BME280;34005;48.844;10.098;2023-10-13T10:28:41;96546.66;;;35.01;20.50
48216;BME280;34005;48.844;10.098;2023-10-13T10:31:10;96543.50;;;34.99;21.13
48216;BME280;34005;48.844;10.098;2023-10-13T10:33:42;96547.31;;;34.98;20.08
48216;BME280;34005;48.844;10.098;2023-10-13T10:36:10;96542.09;;;35.05;19.70
48216;BME280;34005;48.844;10.098;2023-10-13T10:38:53;96546.16;;;35.11;18.83
48216;BME280;34005;48.844;10.098;2023-10-13T10:41:26;96532.84;;;35.18;18.48
48216;BME280;34005;48.844;10.098;2023-10-13T10:44:10;96524.66;;;35.31;18.35
48216;BME280;34005;48.844;10.098;2023-10-13T10:46:42;96517.72;;;35.45;17.94
48216;BME280;34005;48.844;10.098;2023-10-13T10:49:20;96520.03;;;35.59;17.58
48216;BME280;34005;48.844;10.098;2023-10-13T10:51:58;96516.50;;;35.71;17.14
48216;BME280;34005;48.844;10.098;2023-10-13T10:54:27;96511.09;;;35.87;17.73
48216;BME280;34005;48.844;10.098;2023-10-13T10:56:58;96502.34;;;36.09;17.82
48216;BME280;34005;48.844;10.098;2023-10-13T10:59:38;96505.88;;;36.26;17.15
48216;BME280;34005;48.844;10.098;2023-10-13T11:02:06;96498.78;;;36.37;16.83
48216;BME280;34005;48.844;10.098;2023-10-13T11:04:36;96496.56;;;36.59;16.74
48216;BME280;34005;48.844;10.098;2023-10-13T11:07:23;96487.84;;;36.85;16.56
48216;BME280;34005;48.844;10.098;2023-10-13T11:09:51;96479.88;;;37.11;15.91
48216;BME280;34005;48.844;10.098;2023-10-13T11:12:31;96475.25;;;37.55;16.31
48216;BME280;34005;48.844;10.098;2023-10-13T11:15:02;96483.72;;;37.92;15.17
48216;BME280;34005;48.844;10.098;2023-10-13T11:17:39;96474.66;;;38.07;15.24
48216;BME280;34005;48.844;10.098;2023-10-13T11:20:12;96472.53;;;38.20;16.95
48216;BME280;34005;48.844;10.098;2023-10-13T11:22:47;96469.59;;;38.32;15.28
48216;BME280;34005;48.844;10.098;2023-10-13T11:25:22;96472.31;;;38.56;16.08
48216;BME280;34005;48.844;10.098;2023-10-13T11:27:57;96470.94;;;38.72;15.52
48216;BME280;34005;48.844;10.098;2023-10-13T11:30:27;96458.78;;;38.93;14.85
48216;BME280;34005;48.844;10.098;2023-10-13T11:33:02;96456.03;;;39.23;14.18
48216;BME280;34005;48.844;10.098;2023-10-13T11:35:34;96466.09;;;39.87;13.64
48216;BME280;34005;48.844;10.098;2023-10-13T11:38:23;96453.94;;;40.95;13.14
48216;BME280;34005;48.844;10.098;2023-10-13T11:40:56;96457.34;;;42.05;12.25
48216;BME280;34005;48.844;10.098;2023-10-13T11:43:35;96453.63;;;43.05;11.59
48216;BME280;34005;48.844;10.098;2023-10-13T11:46:20;96446.94;;;43.79;11.11
48216;BME280;34005;48.844;10.098;2023-10-13T11:49:03;96449.22;;;43.92;10.68
48216;BME280;34005;48.844;10.098;2023-10-13T11:51:45;96438.44;;;43.59;10.50
48216;BME280;34005;48.844;10.098;2023-10-13T11:54:14;96429.28;;;43.14;11.09
48216;BME280;34005;48.844;10.098;2023-10-13T11:56:42;96424.03;;;42.49;11.74
48216;BME280;34005;48.844;10.098;2023-10-13T11:59:10;96418.59;;;41.77;12.03
48216;BME280;34005;48.844;10.098;2023-10-13T12:01:44;96416.84;;;41.08;12.52
48216;BME280;34005;48.844;10.098;2023-10-13T12:04:29;96409.13;;;40.44;12.60
48216;BME280;34005;48.844;10.098;2023-10-13T12:07:02;96406.16;;;39.60;13.17
48216;BME280;34005;48.844;10.098;2023-10-13T12:09:44;96397.69;;;38.67;13.96
48216;BME280;34005;48.844;10.098;2023-10-13T12:12:29;96392.34;;;37.71;14.85
48216;BME280;34005;48.844;10.098;2023-10-13T12:15:00;96391.03;;;37.00;14.94
48216;BME280;34005;48.844;10.098;2023-10-13T12:17:36;96391.47;;;36.27;15.83
48216;BME280;34005;48.844;10.098;2023-10-13T12:20:07;96383.56;;;35.71;16.19
48216;BME280;34005;48.844;10.098;2023-10-13T12:22:38;96383.81;;;35.22;16.74
48216;BME280;34005;48.844;10.098;2023-10-13T12:25:06;96374.16;;;34.80;17.38
48216;BME280;34005;48.844;10.098;2023-10-13T12:27:52;96379.22;;;34.41;17.65
48216;BME280;34005;48.844;10.098;2023-10-13T12:30:23;96376.56;;;34.17;18.38
48216;BME280;34005;48.844;10.098;2023-10-13T12:33:02;96370.22;;;33.88;18.69
48216;BME280;34005;48.844;10.098;2023-10-13T12:35:35;96360.97;;;33.64;18.71
48216;BME280;34005;48.844;10.098;2023-10-13T12:38:12;96356.09;;;33.45;19.43
48216;BME280;34005;48.844;10.098;2023-10-13T12:41:04;96357.63;;;33.34;19.56
48216;BME280;34005;48.844;10.098;2023-10-13T12:44:00;96347.38;;;33.15;19.26
48216;BME280;34005;48.844;10.098;2023-10-13T12:46:46;96349.09;;;32.99;20.14
48216;BME280;34005;48.844;10.098;2023-10-13T12:49:32;96346.38;;;32.87;20.36
48216;BME280;34005;48.844;10.098;2023-10-13T12:52:18;96339.66;;;32.72;20.55
48216;BME280;34005;48.844;10.098;2023-10-13T12:54:48;96335.97;;;32.55;21.02
48216;BME280;34005;48.844;10.098;2023-10-13T12:57:25;96331.94;;;32.40;21.52
48216;BME280;34005;48.844;10.098;2023-10-13T12:59:54;96333.44;;;32.29;21.31
48216;BME280;34005;48.844;10.098;2023-10-13T13:02:23;96327.66;;;32.18;21.10
48216;BME280;34005;48.844;10.098;2023-10-13T13:04:53;96326.13;;;32.09;20.80
48216;BME280;34005;48.844;10.098;2023-10-13T13:07:23;96317.78;;;32.01;20.96
48216;BME280;34005;48.844;10.098;2023-10-13T13:09:57;96319.22;;;31.90;21.04
48216;BME280;34005;48.844;10.098;2023-10-13T13:12:26;96311.22;;;31.81;20.98
48216;BME280;34005;48.844;10.098;2023-10-13T13:14:55;96311.91;;;31.70;21.10
48216;BME280;34005;48.844;10.098;2023-10-13T13:17:22;96311.94;;;31.61;20.79
48216;BME280;34005;48.844;10.098;2023-10-13T13:19:50;96316.59;;;31.52;20.96
48216;BME280;34005;48.844;10.098;2023-10-13T13:22:18;96309.31;;;31.44;20.51
48216;BME280;34005;48.844;10.098;2023-10-13T13:24:47;96306.16;;;31.33;20.88
48216;BME280;34005;48.844;10.098;2023-10-13T13:27:16;96305.09;;;31.25;20.78
48216;BME280;34005;48.844;10.098;2023-10-13T13:29:46;96299.53;;;31.21;21.22
48216;BME280;34005;48.844;10.098;2023-10-13T13:32:13;96295.44;;;31.15;20.62
48216;BME280;34005;48.844;10.098;2023-10-13T13:34:50;96292.47;;;31.08;20.34